Date,TemperatureHighF,TemperatureAvgF,TemperatureLowF,DewpointHighF,DewpointAvgF,DewpointLowF,HumidityHigh,HumidityAvg,HumidityLow,PressureMaxIn,PressureMinIn,WindSpeedMaxMPH,WindSpeedAvgMPH,GustSpeedMaxMPH,PrecipitationSumIn
2013-1-1,38,34,27,11,7,-3,34,31,25,30.03,29.91,3,2,6,0.00
2013-1-2,33,25,19,0,-4,-8,36,27,23,30.21,30.03,90,3,90,0.00
2013-1-3,38,26,11,4,-1,-8,46,31,21,30.21,30.09,6,0,6,0.00
2013-1-4,38,33,31,7,2,0,33,27,24,30.12,30.03,11,3,15,0.00
2013-1-5,44,31,23,8,3,-2,45,30,20,30.38,30.09,12,2,23,0.00
2013-1-6,44,35,27,16,9,7,47,34,23,30.18,29.97,9,1,90,0.00
2013-1-7,42,35,23,12,9,5,56,34,23,30.38,30.12,7,1,45,0.00
2013-1-8,49,30,18,21,10,6,74,46,19,30.38,30.32,4,0,22,0.00
2013-1-9,46,32,20,22,14,8,69,49,22,30.35,30.18,10,1,90,0.00
2013-1-10,50,39,31,17,10,5,52,30,19,30.56,30.32,13,1,96,0.00
2013-1-11,43,37,32,34,20,10,89,53,28,30.47,30.09,8,1,12,0.00
2013-1-12,50,39,36,44,34,29,91,81,44,30.18,30.09,0,0,90,0.00
2013-1-13,51,44,38,48,40,34,92,86,83,30.12,29.94,7,0,10,0.00
2013-1-14,52,47,39,48,24,5,90,49,19,30.29,29.94,7,1,14,0.00
2013-1-15,39,34,28,25,12,8,73,41,30,30.38,30.18,5,0,22,0.00
2013-1-16,36,33,30,30,27,19,86,79,58,30.18,29.88,22,0,92,0.00
2013-1-17,43,36,31,31,16,10,87,47,29,30.12,29.94,6,1,11,0.00
2013-1-18,35,29,22,17,-2,-9,58,26,21,30.44,30.03,45,3,45,0.00
2013-1-19,52,38,19,11,4,-8,50,25,18,30.29,29.82,9,1,14,0.00
2013-1-20,53,38,24,11,2,-10,27,22,18,30.09,29.70,15,5,21,0.00
2013-1-21,29,24,18,15,-1,-12,65,35,22,30.09,29.85,5,5,5,0.00
2013-1-22,18,13,8,-12,-16,-21,27,25,23,30.24,29.94,15,9,15,0.00
2013-1-23,20,12,6,-10,-18,-23,26,24,22,30.27,30.12,15,6,45,0.00
2013-1-24,24,16,8,2,-14,-21,46,25,22,30.47,30.09,9,1,45,0.00
2013-1-25,20,12,6,-5,-13,-21,42,31,24,30.47,30.03,90,6,90,0.00
2013-1-26,34,18,7,4,-5,-11,51,37,22,30.38,30.06,47,1,47,0.00
2013-1-27,39,23,9,13,-1,-7,54,35,21,30.56,30.38,18,0,45,0.00
2013-1-28,33,31,25,26,16,1,73,55,31,30.44,30.00,45,4,90,0.00
2013-1-29,44,36,33,36,27,22,85,68,62,30.12,29.97,45,8,45,0.00
2013-1-30,62,48,38,56,42,31,91,79,70,29.94,29.23,9,1,14,0.00
2013-1-31,56,37,27,51,10,-6,85,35,21,29.79,29.14,17,5,96,0.00
2013-2-1,28,23,17,-1,-7,-13,32,25,22,30.29,29.79,26,3,48,0.00
2013-2-2,25,19,12,2,-9,-15,43,28,24,30.29,30.00,9,6,90,0.00
2013-2-3,33,25,19,13,5,-5,56,44,29,30.00,29.79,45,1,90,0.00
2013-2-4,32,25,20,10,-3,-8,51,29,23,30.03,29.88,53,4,94,0.00
2013-2-5,33,29,26,17,13,10,58,51,40,29.94,29.82,45,1,45,0.00
2013-2-6,40,30,22,17,6,-5,63,37,21,30.32,29.91,6,1,90,0.00
2013-2-7,38,28,18,7,2,-1,49,34,22,30.41,30.21,8,1,45,0.00
2013-2-8,36,32,26,25,14,0,69,49,28,30.21,29.76,3,1,90,0.00
2013-2-9,37,27,20,4,-1,-5,39,29,22,30.38,29.94,3,0,3,0.00
2013-2-10,44,29,13,11,2,-4,55,32,20,30.44,30.18,48,1,48,0.00
2013-2-11,48,39,33,34,18,0,76,45,22,30.18,29.65,9,1,27,0.00
2013-2-12,41,36,25,9,5,2,47,28,23,30.00,29.79,17,4,18,0.00
2013-2-13,43,31,20,19,11,7,58,45,26,29.97,29.70,3,0,8,0.00
2013-2-14,48,38,27,23,14,9,70,41,22,29.97,29.73,6,1,10,0.00
2013-2-15,50,39,30,21,12,6,51,34,19,30.00,29.91,9,1,13,0.00
2013-2-16,37,32,27,14,4,-5,51,32,22,30.00,29.85,5,0,90,0.00
2013-2-17,29,24,18,-4,-8,-12,27,24,21,30.15,29.82,10,4,10,0.00
2013-2-18,41,28,17,4,-5,-12,26,23,21,30.29,30.06,10,6,11,0.00
2013-2-19,40,33,26,23,8,-6,61,36,22,30.06,29.67,14,8,14,0.00
2013-2-20,30,25,22,3,-4,-9,32,28,24,30.09,29.82,6,6,6,0.00
2013-2-21,35,27,22,1,-4,-7,32,26,22,30.32,30.06,6,6,6,0.00
2013-2-22,32,28,21,10,4,-3,42,35,31,30.35,30.18,6,6,6,0.00
2013-2-23,38,35,32,27,21,10,72,57,40,30.18,29.85,6,6,6,0.00
2013-2-24,37,34,31,29,12,-1,81,44,24,30.06,29.82,6,6,6,0.00
2013-2-25,50,34,24,9,5,-1,45,29,19,30.21,30.06,6,6,6,0.00
2013-2-26,42,33,23,23,14,8,63,47,26,30.21,29.76,6,6,6,0.00
2013-2-27,47,38,32,36,23,16,84,57,34,29.76,29.56,6,6,6,0.00
2013-2-28,44,38,32,23,16,11,56,41,28,29.67,29.59,6,6,6,0.00
2013-3-1,41,38,34,13,8,2,36,29,23,29.88,29.67,6,6,6,0.00
2013-3-2,40,33,30,5,2,-1,31,26,21,29.85,29.76,6,6,6,0.00
2013-3-3,35,30,26,4,1,-3,37,28,25,29.88,29.79,6,6,6,0.00
2013-3-4,35,30,26,3,-2,-4,29,26,25,30.03,29.88,6,6,6,0.00
2013-3-5,47,33,28,11,4,-1,47,30,20,30.06,29.88,6,6,6,0.00
2013-3-6,43,38,30,12,10,9,42,32,25,30.03,29.79,6,6,6,0.00
2013-3-7,50,40,34,9,6,0,29,23,19,30.15,30.03,6,6,6,0.00
2013-3-8,46,38,30,7,3,-1,30,23,19,30.32,30.15,6,6,6,0.00
2013-3-9,63,39,23,16,8,1,48,29,16,30.35,30.24,6,6,6,0.00
2013-3-10,64,46,27,17,11,5,45,27,16,30.27,30.15,6,2,6,0.00
2013-3-11,57,48,41,30,18,6,46,30,19,30.18,29.91,0,0,0,0.00
2013-3-16,36,33,31,18,15,6,57,49,30,29.94,29.70,0,0,0,0.00
2013-3-17,40,34,26,21,8,0,66,37,21,30.24,29.91,0,0,0,0.00
2013-3-18,32,28,22,21,9,-1,68,45,25,30.29,29.91,0,0,0,0.00
2013-3-19,52,38,30,34,15,-1,76,45,18,29.88,29.67,0,0,0,0.00
2013-3-20,47,36,29,7,1,-4,25,22,19,29.91,29.79,0,0,0,0.00
2013-3-21,35,28,20,4,-2,-6,42,26,22,29.82,29.73,0,0,0,0.00
2013-3-22,38,32,27,8,3,-3,43,30,24,29.97,29.79,0,0,0,0.00
2013-3-23,46,36,28,7,3,-3,30,24,19,30.00,29.91,0,0,0,0.00
2013-3-24,48,36,23,9,5,0,43,28,19,29.97,29.65,0,0,0,0.00
2013-3-25,40,36,33,22,14,1,58,41,21,29.67,29.53,0,0,0,0.00
2013-3-26,52,40,32,23,16,8,67,40,18,29.94,29.67,0,0,0,0.00
2013-3-27,50,41,36,14,9,5,32,26,19,30.06,29.94,0,0,0,0.00
2013-3-28,47,42,36,18,9,4,44,27,19,30.21,30.03,0,0,0,0.00
2013-3-29,55,44,33,15,10,5,40,26,18,30.21,30.12,0,0,0,0.00
2013-3-30,62,42,26,17,10,2,54,30,16,30.21,30.06,0,0,0,0.00
2013-3-31,50,40,29,33,19,5,68,45,22,30.09,29.70,0,0,0,0.00
2013-4-1,51,43,34,43,20,-1,89,46,19,29.94,29.67,0,0,0,0.00
2013-4-2,42,35,28,5,0,-5,23,22,21,30.15,29.94,0,0,0,0.00
2013-4-3,44,35,30,6,0,-4,23,22,20,30.35,30.12,0,0,0,0.00
2013-4-4,55,38,20,12,3,-8,41,24,18,30.38,30.03,0,0,0,0.00
2013-4-5,62,46,29,16,7,-2,31,20,16,30.06,29.82,0,0,0,0.00
2013-4-6,60,44,30,15,5,-3,23,20,17,30.32,30.06,0,0,0,0.00
2013-4-7,68,54,42,19,11,4,21,18,15,30.18,29.88,0,0,0,0.00
2013-4-8,78,61,40,34,23,16,63,27,13,30.06,29.88,0,0,0,0.00
2013-4-9,86,72,56,30,25,15,27,18,13,30.03,29.85,0,0,0,0.00
2013-4-10,88,72,60,58,32,23,87,28,13,29.91,29.76,0,0,0,0.00
2013-4-11,63,56,50,58,44,37,88,67,46,29.94,29.79,0,0,0,0.00
2013-4-12,52,49,47,42,35,17,78,59,28,29.85,29.65,0,0,0,0.00
2013-4-13,59,50,42,22,13,8,42,24,17,29.94,29.79,0,0,0,0.00
2013-4-14,68,51,40,18,12,4,30,21,15,30.12,29.94,0,0,0,0.00
2013-4-15,67,55,45,22,20,16,39,26,17,30.24,30.12,0,0,0,0.00
2013-4-16,73,60,53,56,32,22,80,36,22,30.27,30.06,0,0,0,0.00
2013-4-17,74,60,51,57,31,14,87,43,13,30.27,30.12,0,0,0,0.00
2013-4-18,63,58,50,51,32,17,69,39,19,30.21,29.97,0,0,0,0.00
2013-4-19,74,64,50,55,39,17,83,42,25,29.97,29.53,0,0,0,0.00
2013-4-20,54,47,39,17,9,3,28,21,18,30.35,29.76,0,0,0,0.00
2013-4-21,59,43,27,15,7,-3,37,23,17,30.59,30.35,0,0,0,0.00
2013-4-22,63,48,35,19,12,5,46,25,16,30.56,30.38,0,0,0,0.00
2013-4-23,67,51,42,22,14,5,34,24,15,30.41,30.09,0,0,0,0.00
2013-4-24,74,57,45,55,28,15,80,37,16,30.09,29.70,0,0,0,0.00
2013-4-25,67,52,42,18,12,7,29,21,15,30.27,30.06,0,0,0,0.00
2013-4-26,69,53,39,19,13,6,37,20,15,30.44,30.27,0,0,0,0.00
2013-4-27,79,55,33,28,17,10,49,25,13,30.41,30.24,0,0,0,0.00
2013-4-28,68,55,40,32,21,12,48,28,15,30.24,30.12,0,0,0,0.00
2013-4-29,59,55,50,51,38,20,83,57,25,30.12,30.06,0,0,0,0.00
2013-4-30,66,58,53,52,41,28,84,57,25,30.27,30.12,0,0,0,0.00
2013-5-1,76,59,41,30,20,13,53,24,13,30.41,30.29,0,0,0,0.00
2013-5-2,78,60,41,32,22,15,57,26,13,30.44,30.29,0,0,0,0.00
2013-5-3,72,59,44,35,21,12,69,26,14,30.38,30.27,0,0,0,0.00
2013-5-4,75,58,38,34,22,14,68,29,13,30.32,30.15,0,0,0,0.00
2013-5-5,76,60,42,32,20,12,51,24,13,30.24,30.12,0,0,0,0.00
2013-5-6,71,58,39,36,24,11,62,30,17,30.21,30.09,0,0,0,0.00
2013-5-7,77,63,51,46,37,24,70,44,15,30.12,30.00,0,0,0,0.00
2013-5-8,74,62,56,60,49,31,86,67,22,30.03,29.91,0,0,0,0.00
2013-5-9,72,60,54,58,49,32,88,69,23,29.97,29.91,0,0,0,0.00
2013-5-10,76,64,52,60,48,32,89,62,21,30.00,29.85,0,0,0,0.00
2013-5-11,74,66,60,62,49,29,86,62,21,29.85,29.70,0,0,0,0.00
2013-5-12,62,55,42,37,18,5,55,25,16,29.97,29.73,0,0,0,0.00
2013-5-13,57,47,37,17,10,4,40,23,17,30.15,29.97,0,0,0,0.00
2013-5-14,68,48,30,37,16,9,63,32,15,30.18,30.03,0,0,0,0.00
2013-5-15,84,61,48,49,32,20,74,36,13,30.03,29.67,0,0,0,0.00
2013-5-16,88,70,56,58,38,16,87,41,13,29.91,29.73,0,0,0,0.00
2013-5-17,79,64,47,29,23,12,47,22,13,30.18,29.94,0,0,0,0.00
2013-5-18,70,62,55,46,30,24,60,30,19,30.24,30.18,0,0,0,0.00
2013-5-19,65,62,58,59,52,46,86,72,54,30.21,30.12,0,0,0,0.00
2013-5-20,87,72,62,63,50,36,88,54,18,30.12,29.94,0,0,0,0.00
2013-5-21,94,78,62,66,47,30,87,44,11,29.97,29.79,0,0,0,0.00
2013-5-22,92,78,66,67,48,29,86,47,12,29.88,29.76,0,0,0,0.00
2013-5-23,80,70,63,64,56,31,86,67,21,29.88,29.73,0,0,0,0.00
2013-5-24,63,54,48,59,32,13,87,49,22,30.15,29.73,0,0,0,0.00
2013-5-25,68,55,44,19,15,10,33,21,15,30.15,30.06,0,0,0,0.00
2013-5-26,75,59,46,21,16,9,33,19,13,30.21,30.09,0,0,0,0.00
2013-5-27,76,58,38,38,25,16,85,37,13,30.27,30.15,0,0,0,0.00
2013-5-28,68,60,54,59,49,36,85,69,48,30.18,30.06,0,0,0,0.00
2013-5-29,92,75,61,63,46,27,88,49,12,30.09,30.00,0,0,0,0.00
2013-5-30,95,77,59,62,45,30,88,44,11,30.18,30.06,0,0,0,0.00
2013-5-31,95,78,63,67,45,27,86,43,11,30.15,29.97,0,0,0,0.00
2013-6-1,93,79,64,62,42,29,83,36,11,30.00,29.85,0,0,0,0.00
2013-6-2,89,79,72,61,40,28,69,28,13,29.85,29.79,0,0,0,0.00
2013-6-3,83,71,55,59,38,20,81,37,14,29.97,29.82,0,0,0,0.00
2013-6-4,84,64,45,42,27,14,78,30,13,30.12,29.97,0,0,0,0.00
2013-6-5,82,65,46,46,30,18,78,35,14,30.21,30.03,0,0,0,0.00
2013-6-6,68,64,60,59,39,21,84,47,17,30.06,29.88,0,0,0,0.00
2013-6-7,68,65,63,62,60,58,87,85,82,29.88,29.70,0,0,0,0.00
2013-6-8,80,68,57,61,47,24,87,56,15,30.09,29.73,0,0,0,0.00
2013-6-9,89,70,53,61,42,27,89,48,13,30.21,30.09,0,0,0,0.00
2013-6-10,73,69,67,66,62,40,88,78,33,30.12,29.76,0,0,0,0.00
2013-6-11,84,72,64,65,48,34,89,50,20,29.82,29.73,0,0,0,0.00
2013-6-12,90,74,62,62,44,28,85,42,12,29.88,29.79,0,0,0,0.00
2013-6-13,80,69,63,64,54,37,88,63,24,29.82,29.47,0,0,0,0.00
2013-6-14,81,69,59,54,38,25,79,40,14,31.27,29.67,0,0,0,0.00
2013-6-15,87,70,55,58,38,22,86,42,13,31.74,31.24,0,0,0,0.00
2013-6-16,85,70,58,56,40,31,66,38,16,31.74,30.50,0,0,0,0.00
2013-6-17,93,76,64,62,44,27,83,41,11,31.03,30.56,0,0,0,0.00
2013-6-18,82,70,60,59,46,31,85,50,17,31.74,30.80,0,0,0,0.00
2013-6-21,86,79,70,59,32,24,68,19,13,31.74,31.74,0,0,0,0.00
2013-6-22,90,76,58,55,36,22,76,30,12,31.74,31.74,0,0,0,0.00
2013-6-23,92,78,65,66,49,35,86,44,14,31.74,31.74,0,0,0,0.00
2013-6-24,94,78,65,66,53,36,86,49,14,31.74,31.74,0,0,0,0.00
2013-6-25,93,77,68,69,57,35,87,58,14,31.74,31.74,0,0,0,0.00
2013-6-26,91,76,69,66,52,31,85,50,12,31.74,31.74,0,0,0,0.00
2013-6-27,84,72,66,70,63,42,89,76,23,31.74,31.74,0,0,0,0.00
2013-6-28,87,75,69,69,58,38,88,64,18,31.74,31.74,0,0,0,0.00
2013-6-29,90,74,62,65,50,29,90,55,12,31.74,31.74,0,0,0,0.00
2013-6-30,94,76,63,67,54,35,88,58,14,31.74,31.74,0,0,0,0.00
2013-7-1,86,76,69,71,62,39,87,69,19,31.74,31.74,0,0,0,0.00
2013-7-2,88,78,73,71,65,46,86,68,23,31.74,31.74,0,0,0,0.00
2013-7-3,87,79,73,70,61,44,84,59,23,31.74,31.74,0,0,0,0.00
2013-7-4,94,82,74,71,58,36,84,53,14,31.74,31.74,0,0,0,0.00
2013-7-5,94,82,71,73,57,36,87,52,14,31.74,31.74,0,0,0,0.00
2013-7-6,96,81,70,72,57,32,88,56,11,31.74,31.74,0,0,0,0.00
2013-7-7,93,79,71,70,59,36,86,59,14,31.74,31.74,0,0,0,0.00
2013-7-10,83,73,70,66,62,50,87,73,32,31.74,31.74,0,0,0,0.00
2013-7-11,92,76,67,67,52,28,88,55,12,31.74,31.74,0,0,0,0.00
2013-7-12,81,72,66,65,53,38,86,58,22,31.74,31.74,0,0,0,0.00
2013-7-13,88,74,68,70,63,40,87,72,19,31.74,31.74,0,0,0,0.00
2013-7-14,95,82,72,72,56,36,86,53,14,31.74,31.74,0,0,0,0.00
2013-7-15,101,81,68,72,56,33,88,55,10,31.74,31.74,0,0,0,0.00
2013-7-16,101,84,72,75,54,33,86,49,10,31.74,31.74,0,0,0,0.00
2013-7-17,101,84,70,69,54,33,84,47,10,31.74,31.74,0,0,0,0.00
2013-7-18,101,84,74,72,55,33,84,48,10,31.74,28.85,0,0,0,0.00
2013-7-19,100,84,70,72,52,33,86,45,10,31.74,24.21,0,0,0,0.00
2013-7-20,97,81,73,70,54,31,84,47,11,24.21,24.21,0,0,0,0.00
2013-7-21,94,79,69,70,50,29,87,48,11,24.21,24.21,0,0,0,0.00
2013-7-22,86,77,69,71,62,42,87,66,21,24.21,24.21,0,0,0,0.00
2013-7-23,92,79,71,71,55,31,88,54,12,24.21,24.21,0,0,0,0.00
2013-7-24,84,72,61,64,43,23,84,44,13,24.21,24.21,0,0,0,0.00
2013-7-25,61,58,58,45,43,42,56,56,54,24.21,24.21,0,0,0,0.00
2013-7-26,58,58,58,43,43,43,56,56,56,24.21,24.21,0,0,0,0.00
2013-7-27,58,58,58,43,43,43,56,56,56,24.21,24.21,0,0,0,0.00
2013-7-28,58,58,58,43,43,43,56,56,56,24.21,24.21,0,0,0,0.00
2013-7-29,58,58,58,43,43,43,56,56,56,24.21,24.21,0,0,0,0.00
2013-7-30,58,58,58,43,43,43,56,56,56,24.21,24.21,0,0,0,0.00
2013-7-31,58,58,58,43,43,43,56,56,56,24.21,24.21,0,0,0,0.00
2013-8-1,58,58,58,43,43,43,56,56,56,24.21,24.21,0,0,0,0.00
2013-8-2,58,58,58,43,43,43,56,56,56,24.21,24.21,0,0,0,0.00
2013-8-3,58,58,58,43,43,43,56,56,56,24.21,24.21,0,0,0,0.00
2013-8-4,58,58,58,43,43,43,56,56,56,24.21,24.21,0,0,0,0.00
2013-8-5,58,58,58,43,43,43,56,56,56,24.21,24.21,0,0,0,0.00
2013-8-6,58,58,58,43,43,43,56,56,56,30.09,24.21,0,0,0,0.00
2013-8-7,58,58,58,43,43,43,56,56,56,30.09,30.03,0,0,0,0.00
2013-8-8,58,58,58,43,43,43,56,56,56,30.06,29.97,0,0,0,0.00
2013-8-9,58,58,58,43,43,43,56,56,56,29.97,29.85,0,0,0,0.00
2013-8-10,89,68,58,69,49,30,100,55,13,30.09,29.97,0,0,0,0.00
2013-8-11,89,71,60,63,50,32,100,60,13,30.17,30.02,0,0,0,0.00
2013-8-12,90,75,63,64,49,28,88,53,12,30.05,29.93,0,0,0,0.00
2013-8-13,89,77,66,68,41,23,88,36,13,29.93,29.72,0,0,0,0.00
2013-8-14,78,64,53,46,28,21,75,29,15,30.11,29.87,0,0,0,0.00
2013-8-15,83,63,48,49,37,24,87,50,14,30.20,30.08,0,0,0,0.00
2013-8-16,82,65,50,58,51,32,100,65,23,30.20,30.14,0,0,0,0.00
2013-8-17,85,67,52,66,56,52,100,74,41,30.29,30.20,0,0,0,0.00
2013-8-18,77,66,61,68,60,52,100,84,46,30.29,30.17,0,0,0,0.00
2013-8-19,83,68,59,70,63,58,100,87,47,30.17,30.05,0,0,0,0.00
2013-8-20,91,73,62,73,63,56,100,75,40,30.17,30.08,0,0,0,0.00
2013-8-21,92,73,58,71,63,58,100,76,40,30.23,30.05,0,0,0,0.00
2013-8-22,91,78,68,74,66,57,100,74,40,30.08,29.90,0,0,0,0.00
2013-8-23,87,71,52,72,63,52,100,80,41,30.17,29.96,0,0,0,0.00
2013-8-24,86,67,52,65,56,51,100,74,41,30.35,30.17,0,0,0,0.00
2013-8-25,90,69,50,65,56,50,100,69,40,30.40,30.23,0,0,0,0.00
2013-8-26,91,76,62,71,61,54,100,63,40,30.23,29.96,0,0,0,0.00
2013-8-27,93,79,71,76,67,62,100,72,40,29.96,29.87,0,0,0,0.00
2013-8-28,83,75,70,79,73,67,100,95,59,29.93,29.84,0,0,0,0.00
2013-8-29,92,77,70,76,69,62,100,80,42,30.05,29.90,0,0,0,0.00
2013-8-30,97,78,66,75,66,59,100,73,39,30.02,29.84,0,0,0,0.00
2013-8-31,92,78,68,77,70,64,100,78,45,29.87,29.78,0,0,0,0.00
2013-9-1,89,78,70,78,71,65,100,83,47,29.84,29.78,0,0,0,0.00
2013-9-2,95,78,70,77,70,61,100,81,39,29.81,29.70,0,0,0,0.00
2013-9-3,82,70,61,71,59,50,100,70,42,29.99,29.78,0,0,0,0.00
2013-9-4,86,70,58,62,57,52,100,67,41,30.08,29.99,0,0,0,0.00
2013-9-5,83,70,58,63,53,43,97,58,41,30.20,29.99,0,0,0,0.00
2013-9-6,80,59,44,56,47,41,100,68,41,30.29,30.14,0,0,0,0.00
2013-9-7,85,64,44,58,51,44,100,68,41,30.14,29.93,0,0,0,0.00
2013-9-8,82,68,55,69,57,40,100,71,42,30.11,29.90,0,0,0,0.00
2013-9-9,72,60,43,59,49,42,100,72,44,30.23,30.11,0,0,0,0.00
2013-9-10,97,77,62,77,66,60,100,74,41,30.17,30.05,0,0,0,0.00
2013-9-11,97,78,70,80,72,67,100,85,41,30.14,30.02,0,0,0,0.00
2013-9-12,89,72,68,78,71,66,100,96,47,30.02,29.75,0,0,0,0.00
2013-9-13,76,67,58,68,54,42,100,68,41,29.96,29.75,0,0,0,0.00
2013-9-14,70,57,46,53,46,40,100,71,43,30.17,29.96,0,0,0,0.00
2013-9-15,77,57,41,60,50,41,100,81,43,30.26,30.05,0,0,0,0.00
2013-9-16,74,63,54,64,53,42,100,73,44,30.32,30.05,0,0,0,0.00
2013-9-17,72,54,39,49,43,38,100,72,42,30.46,30.32,0,0,0,0.00
2013-9-18,76,56,39,53,45,39,100,74,41,30.35,30.17,0,0,0,0.00
2013-9-19,82,60,41,62,51,41,100,79,42,30.20,30.08,0,0,0,0.00
2013-9-20,82,65,51,65,56,51,100,77,42,30.08,29.93,0,0,0,0.00
2013-9-21,69,65,61,68,64,57,100,97,71,29.96,29.67,0,0,0,0.00
2013-9-22,68,60,52,62,49,38,100,71,45,29.99,29.72,0,0,0,0.00
2013-9-23,70,57,45,49,42,36,100,58,43,30.11,29.99,0,0,0,0.00
2013-9-24,80,55,38,56,46,38,100,79,41,30.14,29.96,0,0,0,0.00
2013-9-25,80,56,40,59,48,40,100,81,43,30.02,29.90,0,0,0,0.00
2013-9-26,79,59,42,58,50,42,100,77,43,30.11,29.96,0,0,0,0.00
2013-9-27,80,63,53,60,55,48,100,79,43,30.26,30.11,0,0,0,0.00
2013-9-28,70,59,52,61,53,48,100,83,48,30.35,30.23,0,0,0,0.00
2013-9-29,74,58,45,59,50,45,100,78,44,30.23,30.08,0,0,0,0.00
2013-9-30,79,60,46,61,52,46,100,78,43,30.11,29.96,0,0,0,0.00
2013-10-1,84,65,54,66,56,50,100,78,42,30.08,29.96,0,0,0,0.00
2013-10-2,87,67,52,69,58,52,100,78,41,30.05,29.99,0,0,0,0.00
2013-10-3,84,68,56,68,60,56,100,79,44,30.14,30.02,0,0,0,0.00
2013-10-4,87,71,60,72,64,60,100,83,46,30.08,29.99,0,0,0,0.00
2013-10-5,89,73,63,73,66,61,100,84,43,30.11,29.99,0,0,0,0.00
2013-10-6,87,73,64,72,67,63,100,84,48,30.02,29.90,0,0,0,0.00
2013-10-7,73,65,52,71,59,41,100,81,49,30.05,29.70,0,0,0,0.00
2013-10-8,75,56,44,55,46,41,100,73,43,30.35,30.05,0,0,0,0.00
2013-10-9,65,52,42,55,45,41,100,80,46,30.40,30.29,0,0,0,0.00
2013-10-10,62,52,46,55,49,41,100,90,49,30.32,30.11,0,0,0,0.00
2013-10-11,65,58,52,64,58,52,100,99,94,30.11,30.05,0,0,0,0.00
2013-10-12,79,64,57,61,53,43,100,73,41,30.23,30.08,0,0,0,0.00
2013-10-13,74,62,56,61,54,47,100,77,46,30.35,30.23,0,0,0,0.00
2013-10-14,68,60,55,60,51,46,100,74,51,30.35,30.26,0,0,0,0.00
2013-10-15,74,60,49,63,51,44,100,76,44,30.26,30.08,0,0,0,0.00
2013-10-16,66,60,52,64,58,46,100,93,63,30.08,29.87,0,0,0,0.00
2013-10-17,74,63,57,66,58,50,100,86,47,29.93,29.64,0,0,0,0.00
2013-10-18,66,54,42,50,44,38,100,70,43,30.02,29.81,0,0,0,0.00
2013-10-19,59,49,37,57,46,37,100,93,54,29.99,29.75,0,0,0,0.00
2013-10-20,63,50,38,47,39,33,100,68,44,30.08,29.84,0,0,0,0.00
2013-10-21,67,51,34,52,39,34,100,71,43,30.14,29.93,0,0,0,0.00
2013-10-22,62,52,40,48,38,27,92,62,44,29.90,29.81,0,0,0,0.00
2013-10-23,49,44,39,43,38,30,99,80,49,29.84,29.72,0,0,0,0.00
2013-10-24,51,42,35,39,31,22,100,67,47,30.08,29.87,0,0,0,0.00
2013-10-25,56,43,33,35,31,23,90,64,45,30.26,30.08,0,0,0,0.00
2013-10-26,56,43,29,37,32,29,100,69,45,30.26,29.90,0,0,0,0.00
2013-10-27,54,46,34,40,31,25,98,58,46,30.14,29.90,0,0,0,0.00
2013-10-28,66,44,27,44,35,27,100,78,43,30.32,30.14,0,0,0,0.00
2013-10-29,62,45,33,44,38,33,100,81,44,30.43,30.32,0,0,0,0.00
2013-10-30,70,48,38,54,42,38,100,83,45,30.32,30.14,0,0,0,0.00
2013-10-31,62,59,53,62,59,53,100,100,100,30.17,29.70,0,0,0,0.00
2013-11-1,72,62,46,65,52,41,100,76,42,29.70,29.46,0,0,0,0.00
2013-11-2,64,50,40,49,42,36,100,78,46,29.84,29.67,0,0,0,0.00
2013-11-3,55,43,29,46,29,15,89,60,46,30.49,29.84,0,0,0,0.00
2013-11-4,50,37,23,30,24,15,100,61,47,30.61,30.49,0,0,0,0.00
2013-11-5,56,44,34,42,31,20,100,63,48,30.61,30.43,0,0,0,0.00
2013-11-6,65,54,39,52,47,39,100,78,48,30.43,29.96,0,0,0,0.00
2013-11-7,60,52,40,56,41,22,100,68,48,30.05,29.84,0,0,0,0.00
2013-11-8,48,41,30,34,26,20,94,57,47,30.26,30.02,0,0,0,0.00
2013-11-9,52,40,27,32,27,22,97,63,46,30.29,29.93,0,0,0,0.00
2013-11-10,54,43,31,39,29,24,100,60,46,30.17,29.90,0,0,0,0.00
2013-11-11,52,45,33,32,28,22,71,53,46,30.23,29.99,0,0,0,0.00
2013-11-12,49,36,29,32,21,13,69,54,47,30.37,29.99,0,0,0,0.00
2013-11-13,48,33,27,28,17,11,58,51,47,30.43,30.29,0,0,0,0.00
2013-11-14,54,40,27,34,22,14,59,50,46,30.29,30.17,0,0,0,0.00
2013-11-15,59,39,24,38,24,14,73,57,45,30.23,30.14,0,0,0,0.00
2013-11-16,62,50,35,54,39,30,100,69,44,30.29,30.20,0,0,0,0.00
2013-11-17,61,55,50,61,55,47,100,100,89,30.20,29.61,0,0,0,0.00
2013-11-18,62,54,45,62,38,26,100,58,44,29.93,29.58,0,0,0,0.00
2013-11-19,47,38,26,33,22,17,77,53,47,30.40,29.93,0,0,0,0.00
2013-11-20,49,32,22,30,20,14,85,62,47,30.55,30.40,0,0,0,0.00
2013-11-21,44,35,23,30,22,12,68,59,50,30.55,30.35,0,0,0,0.00
2013-11-22,52,46,40,50,39,30,100,79,57,30.35,29.99,0,0,0,0.00
2013-11-23,47,36,24,32,21,8,81,54,48,30.17,29.99,0,0,0,0.00
2013-11-24,29,24,20,13,8,4,60,51,48,30.43,30.17,0,0,0,0.00
2013-11-25,35,27,18,19,12,5,61,53,50,30.46,30.26,0,0,0,0.00
2013-11-26,33,31,28,33,24,15,100,77,51,30.26,29.67,0,0,0,0.00
2013-11-27,37,34,27,37,26,12,100,77,54,29.93,29.55,0,0,0,0.00
2013-11-28,32,28,26,18,15,12,63,57,51,30.43,29.93,0,0,0,0.00
2013-11-29,40,28,18,36,18,13,100,68,49,30.70,30.43,0,0,0,0.00
2013-11-30,34,26,13,19,15,9,88,64,50,30.70,30.32,0,0,0,0.00
2013-12-1,34,28,18,24,18,12,84,66,54,30.32,30.02,0,0,0,0.00
2013-12-2,42,34,29,29,26,22,85,71,57,30.02,29.87,0,0,0,0.00
2013-12-3,50,38,29,39,31,26,98,78,52,29.99,29.87,0,0,0,0.00
2013-12-4,52,39,28,43,34,28,100,85,55,30.11,29.99,0,0,0,0.00
2013-12-5,57,52,49,55,51,44,100,95,81,30.05,29.87,0,0,0,0.00
2013-12-6,53,42,33,53,39,29,100,87,70,30.20,29.90,0,0,0,0.00
2013-12-7,39,32,24,34,24,12,100,74,53,30.55,30.20,0,0,0,0.00
2013-12-8,28,23,18,26,16,10,93,76,57,30.55,30.29,0,0,0,0.00
2013-12-9,37,33,27,35,30,24,100,90,63,30.29,29.99,0,0,0,0.00
2013-12-10,35,31,25,24,18,10,68,57,51,30.14,29.93,0,0,0,0.00
2013-12-11,39,28,22,22,13,8,66,54,49,30.32,30.14,0,0,0,0.00
2013-12-12,27,22,18,15,8,3,65,54,50,30.37,30.14,0,0,0,0.00
2013-12-13,38,29,23,20,14,8,68,53,49,30.29,30.11,0,0,0,0.00
2013-12-14,29,26,24,26,20,15,99,77,65,30.35,29.78,0,0,0,0.00
2013-12-15,37,30,25,32,24,14,100,79,56,29.87,29.61,0,0,0,0.00
2013-12-16,35,22,14,19,8,2,66,56,51,30.17,29.90,0,0,0,0.00
2013-12-17,30,21,10,22,14,5,85,75,63,30.14,29.93,0,0,0,0.00
2013-12-18,37,27,14,24,17,10,95,68,52,30.17,29.99,0,0,0,0.00
2013-12-19,50,28,10,30,18,5,86,68,47,30.14,29.99,0,0,0,0.00
2013-12-20,42,34,28,34,29,24,93,82,62,30.08,29.93,0,0,0,0.00
2013-12-21,51,42,36,51,39,35,100,92,63,29.93,29.81,0,0,0,0.00
2013-12-22,65,58,43,63,54,43,100,90,66,29.93,29.70,0,0,0,0.00
2013-12-23,53,47,34,53,40,20,100,80,52,30.23,29.90,0,0,0,0.00
2013-12-24,37,29,21,25,16,7,74,59,51,30.43,30.17,0,0,0,0.00
2013-12-25,32,22,13,16,9,3,73,55,51,30.52,30.32,0,0,0,0.00
2013-12-26,37,29,22,26,17,11,76,62,52,30.32,30.17,0,0,0,0.00
2013-12-27,41,30,20,23,18,12,82,61,49,30.35,30.26,0,0,0,0.00
2013-12-28,60,38,22,38,26,18,94,64,45,30.26,30.05,0,0,0,0.00
2013-12-29,41,36,33,41,33,24,100,90,71,30.05,29.61,0,0,0,0.00
2013-12-30,44,33,23,42,20,8,100,60,51,30.17,29.75,0,0,0,0.00
2013-12-31,31,25,22,22,13,8,73,60,51,30.26,30.05,0,0,0,0.00
2014-1-1,33,28,23,22,17,11,75,63,57,30.35,30.17,0,0,0,0.00
2014-1-2,30,26,18,23,20,11,88,76,69,30.14,29.70,0,0,0,0.00